Time;durP1;ratioP1;P1;durP2;ratioP2;P2;SDS_P1;SDS_P2;PMS_P1;PMS_P2;Temp;Humidity;BMP_temperature;BMP_pressure;BME280_temperature;BME280_humidity;BME280_pressure;Samples;Min_cycle;Max_cycle;Signal;HPM_P1;HPM_P2
2022/02/18 00:02:46;;;;;;;3.47;1.87;;;;;;;6.29;100.00;98355.39;713166;1176;113725;-85
2022/02/18 00:17:48;;;;;;;5.88;2.50;;;;;;;6.24;100.00;98369.86;713661;1170;114451;-84
2022/02/18 00:32:50;;;;;;;7.90;3.30;;;;;;;6.16;100.00;98381.03;713665;1174;113615;-84
2022/02/18 00:47:52;;;;;;;5.67;2.67;;;;;;;6.18;100.00;98393.89;713737;1177;113673;-86
2022/02/18 01:02:54;;;;;;;4.90;2.23;;;;;;;6.19;100.00;98408.55;713547;1175;113638;-85
2022/02/18 01:17:57;;;;;;;3.43;1.68;;;;;;;6.21;100.00;98422.25;718069;1176;114123;-84
2022/02/18 01:32:59;;;;;;;12.50;4.10;;;;;;;6.13;100.00;98446.44;713673;1177;113826;-83
2022/02/18 01:48:02;;;;;;;3.93;1.93;;;;;;;5.99;100.00;98472.05;713415;1175;114340;-85
2022/02/18 02:03:04;;;;;;;3.17;1.70;;;;;;;6.07;100.00;98486.92;713173;1175;113541;-84
2022/02/18 02:18:06;;;;;;;2.50;1.27;;;;;;;6.02;100.00;98522.16;712946;1177;113729;-87
2022/02/18 02:33:08;;;;;;;1.20;0.90;;;;;;;5.83;100.00;98565.55;713264;1176;113641;-83
2022/02/18 02:48:10;;;;;;;2.80;1.25;;;;;;;5.78;100.00;98588.59;713132;1174;114521;-83
2022/02/18 03:03:13;;;;;;;2.37;1.10;;;;;;;5.73;100.00;98622.03;712990;1175;113645;-83
2022/02/18 03:18:15;;;;;;;6.00;1.30;;;;;;;5.81;100.00;98651.58;712828;1175;113689;-83
2022/02/18 03:33:17;;;;;;;6.28;1.50;;;;;;;5.83;100.00;98690.47;713429;1175;113678;-83
2022/02/18 03:48:19;;;;;;;3.37;1.13;;;;;;;5.80;100.00;98708.98;713189;1176;114283;-82
2022/02/18 04:03:22;;;;;;;4.18;2.10;;;;;;;5.89;100.00;98731.55;712734;1177;113575;-83
2022/02/18 04:18:25;;;;;;;6.13;3.73;;;;;;;5.96;100.00;98747.41;713096;1175;113796;-84
2022/02/18 04:33:27;;;;;;;3.35;1.90;;;;;;;5.90;100.00;98774.84;713823;1177;114263;-84
2022/02/18 04:48:30;;;;;;;6.48;3.03;;;;;;;5.93;100.00;98797.16;714301;1176;114364;-84
2022/02/18 05:03:33;;;;;;;6.75;1.70;;;;;;;5.87;100.00;98808.94;714415;1176;114459;-86
2022/02/18 05:18:37;;;;;;;8.58;3.00;;;;;;;5.82;99.80;98839.80;713618;1176;113770;-84
2022/02/18 05:33:39;;;;;;;6.17;2.43;;;;;;;5.63;100.00;98846.64;713961;1175;113613;-84
2022/02/18 05:48:41;;;;;;;5.80;3.50;;;;;;;5.66;100.00;98858.55;713587;1176;114885;-85
2022/02/18 06:03:44;;;;;;;18.90;5.93;;;;;;;5.58;100.00;98874.05;713169;1175;114560;-84
2022/02/18 06:18:46;;;;;;;21.20;6.25;;;;;;;5.59;100.00;98886.09;713429;1176;114269;-82
2022/02/18 06:33:48;;;;;;;41.43;19.07;;;;;;;5.57;100.00;98924.42;713482;1177;115223;-83
2022/02/18 06:48:50;;;;;;;18.70;6.98;;;;;;;5.76;100.00;98939.23;719647;1176;114656;-82
2022/02/18 07:03:52;;;;;;;12.73;5.20;;;;;;;5.76;100.00;98945.25;713292;1176;114253;-74
2022/02/18 07:18:55;;;;;;;122.15;43.55;;;;;;;5.69;100.00;98977.16;713242;1174;114438;-76
2022/02/18 07:33:58;;;;;;;139.10;49.63;;;;;;;5.74;100.00;98985.38;714011;1176;115716;-78
2022/02/18 07:49:00;;;;;;;42.60;17.57;;;;;;;5.88;100.00;98999.78;713417;1175;114391;-77
2022/02/18 08:04:04;;;;;;;46.03;20.00;;;;;;;5.97;100.00;99030.20;713324;1175;114877;-77
2022/02/18 08:19:07;;;;;;;18.60;6.40;;;;;;;6.05;98.10;99069.42;713095;1176;115515;-76
2022/02/18 08:34:10;;;;;;;50.30;21.95;;;;;;;6.34;96.82;99063.40;714226;1177;114057;-76
2022/02/18 08:49:12;;;;;;;23.95;7.35;;;;;;;6.55;94.61;99065.04;714616;1175;114334;-75
2022/02/18 09:04:15;;;;;;;15.60;5.20;;;;;;;6.66;93.46;99103.96;713831;1176;114837;-74
2022/02/18 09:19:17;;;;;;;72.53;24.30;;;;;;;6.78;92.04;99107.23;715375;1176;114041;-75
2022/02/18 09:34:26;;;;;;;55.88;20.58;;;;;;;6.82;88.65;99124.24;713746;1174;115329;-79
2022/02/18 09:49:31;;;;;;;58.47;24.23;;;;;;;6.99;88.01;99148.78;713771;1174;114320;-75
2022/02/18 10:04:34;;;;;;;20.43;10.17;;;;;;;6.98;86.40;99145.36;714763;1177;113879;-76
2022/02/18 10:19:49;;;;;;;15.63;5.63;;;;;;;7.12;86.45;99153.70;713313;1176;114243;-76
2022/02/18 10:35:04;;;;;;;44.23;15.13;;;;;;;7.29;85.23;99152.97;714099;1174;113646;-76
2022/02/18 10:50:33;;;;;;;29.85;9.85;;;;;;;7.57;84.26;99147.79;714240;1174;114961;-76
2022/02/18 11:05:38;;;;;;;13.70;6.08;;;;;;;7.52;82.76;99172.69;713079;1175;114421;-76
2022/02/18 11:20:43;;;;;;;11.35;5.48;;;;;;;7.62;80.07;99174.28;713745;1177;115098;-76
2022/02/18 11:36:07;;;;;;;16.90;5.27;;;;;;;8.01;78.10;99196.81;713395;1177;114088;-75
2022/02/18 11:51:11;;;;;;;16.93;4.55;;;;;;;8.18;75.97;99192.58;713385;1176;115233;-75
2022/02/18 12:06:22;;;;;;;19.07;7.73;;;;;;;8.42;74.34;99197.26;714011;1176;114949;-75
2022/02/18 12:21:26;;;;;;;52.98;20.40;;;;;;;8.35;71.70;99187.54;713798;1175;113565;-75
2022/02/18 12:36:31;;;;;;;10.83;4.13;;;;;;;8.47;69.58;99171.53;713939;1174;113691;-75
2022/02/18 12:51:33;;;;;;;20.70;7.13;;;;;;;9.42;70.04;99147.39;713896;1174;114822;-76
2022/02/18 13:06:38;;;;;;;15.20;4.30;;;;;;;10.97;65.78;99129.54;713762;1174;114009;-74
2022/02/18 13:21:41;;;;;;;11.28;4.05;;;;;;;11.46;65.37;99102.34;713575;1175;115194;-74
2022/02/18 13:36:48;;;;;;;9.55;3.90;;;;;;;14.70;60.35;99080.53;713917;1175;115291;-77
2022/02/18 13:51:56;;;;;;;19.63;7.80;;;;;;;14.06;55.18;99068.98;714371;1174;115478;-74
2022/02/18 14:07:02;;;;;;;17.07;6.80;;;;;;;12.08;56.68;99042.94;713695;1174;114128;-74
2022/02/18 14:22:05;;;;;;;21.80;9.43;;;;;;;10.70;58.63;99024.97;713868;1175;115325;-74
2022/02/18 14:37:08;;;;;;;38.43;11.93;;;;;;;9.58;59.87;99007.04;713756;1175;114631;-74
2022/02/18 14:52:11;;;;;;;22.88;9.13;;;;;;;9.19;60.86;98965.72;714144;1167;113918;-75
2022/02/18 15:07:17;;;;;;;12.43;4.88;;;;;;;8.83;62.11;98953.64;713733;1174;114894;-75
2022/02/18 15:22:19;;;;;;;11.28;4.60;;;;;;;8.49;63.50;98931.72;713902;1177;114568;-75
2022/02/18 15:37:21;;;;;;;11.53;3.70;;;;;;;8.18;63.18;98904.39;713538;1176;114315;-74
2022/02/18 15:52:26;;;;;;;12.30;4.15;;;;;;;8.07;64.07;98874.13;712720;1175;114983;-76
2022/02/18 16:07:28;;;;;;;21.05;9.15;;;;;;;7.89;64.82;98850.66;713867;1175;114790;-72
2022/02/18 16:22:31;;;;;;;11.13;4.25;;;;;;;7.70;65.24;98782.02;713665;1176;115305;-71
2022/02/18 16:37:34;;;;;;;14.93;6.80;;;;;;;7.63;66.32;98716.56;713694;1174;115105;-70
2022/02/18 16:52:37;;;;;;;10.70;4.10;;;;;;;7.48;67.83;98687.61;714344;1174;115252;-70
2022/02/18 17:07:42;;;;;;;15.60;5.10;;;;;;;7.32;68.18;98651.81;713833;1175;113965;-74
2022/02/18 17:22:46;;;;;;;13.70;6.93;;;;;;;7.35;68.91;98608.95;713665;1174;115369;-75
2022/02/18 17:37:49;;;;;;;10.47;5.13;;;;;;;7.34;68.72;98539.48;714629;1167;115142;-76
2022/02/18 17:52:52;;;;;;;15.48;7.18;;;;;;;7.40;69.57;98486.66;714655;1177;115210;-78
2022/02/18 18:07:54;;;;;;;17.47;6.67;;;;;;;7.42;70.11;98405.65;714110;1176;113864;-79
2022/02/18 18:22:56;;;;;;;17.33;7.28;;;;;;;7.45;70.41;98380.03;714675;1176;114252;-78
2022/02/18 18:37:59;;;;;;;20.53;9.40;;;;;;;7.45;72.25;98333.06;714376;1176;113873;-78
2022/02/18 18:53:01;;;;;;;17.80;7.93;;;;;;;7.48;77.06;98306.67;713881;1176;114065;-77
2022/02/18 19:08:06;;;;;;;13.93;5.93;;;;;;;7.36;81.09;98227.09;713950;1176;115006;-79
2022/02/18 19:23:09;;;;;;;14.88;6.15;;;;;;;7.23;86.39;98153.77;713940;1175;113844;-78
2022/02/18 19:38:12;;;;;;;14.60;6.10;;;;;;;7.15;88.36;98076.35;714226;1174;113752;-77
2022/02/18 19:53:14;;;;;;;7.33;4.48;;;;;;;7.07;93.11;98017.22;714181;1174;114796;-77
2022/02/18 20:08:19;;;;;;;6.95;4.10;;;;;;;7.13;96.81;97963.61;714950;1176;113622;-77
2022/02/18 20:23:25;;;;;;;9.03;3.55;;;;;;;7.09;100.00;97884.11;714096;1174;113651;-78
2022/02/18 20:38:27;;;;;;;11.43;3.77;;;;;;;7.27;100.00;97861.17;714151;1175;114784;-78
2022/02/18 20:53:30;;;;;;;5.03;3.27;;;;;;;7.41;100.00;97812.65;713957;1175;114474;-79
2022/02/18 21:08:35;;;;;;;8.70;3.57;;;;;;;7.64;100.00;97746.56;714410;1177;113812;-76
2022/02/18 21:23:38;;;;;;;13.40;5.13;;;;;;;7.77;100.00;97684.14;714039;1175;114561;-78
2022/02/18 21:38:40;;;;;;;10.95;4.50;;;;;;;7.82;100.00;97683.59;714763;1177;114588;-78
2022/02/18 21:53:43;;;;;;;10.87;5.10;;;;;;;8.21;100.00;97598.06;714362;1177;114416;-77
2022/02/18 22:08:46;;;;;;;12.85;5.38;;;;;;;8.51;100.00;97579.70;714896;1176;114861;-78
2022/02/18 22:23:48;;;;;;;13.08;6.10;;;;;;;8.86;100.00;97553.64;715005;1176;114555;-79
2022/02/18 22:38:50;;;;;;;19.45;6.10;;;;;;;9.08;100.00;97555.19;714388;1174;114076;-79
2022/02/18 22:53:53;;;;;;;16.55;6.40;;;;;;;9.14;100.00;97540.52;713899;1176;115750;-78
2022/02/18 23:08:55;;;;;;;17.00;5.97;;;;;;;9.66;100.00;97526.06;714368;1175;114869;-78
2022/02/18 23:23:57;;;;;;;9.30;4.60;;;;;;;9.94;100.00;97564.41;716174;1174;114636;-79
2022/02/18 23:38:59;;;;;;;16.10;7.27;;;;;;;9.90;100.00;97594.61;718823;1174;113868;-76
2022/02/18 23:54:04;;;;;;;14.98;5.95;;;;;;;10.14;100.00;97566.27;713493;1175;114084;-76
